createdAt,value
2018-02-23T00:00:50.625Z,0
2018-02-23T00:01:50.357Z,0
2018-02-23T00:02:50.102Z,0
2018-02-23T00:03:50.347Z,0
2018-02-23T00:04:50.582Z,0
2018-02-23T00:05:50.328Z,0
2018-02-23T00:06:50.325Z,0
2018-02-23T00:07:50.041Z,0
2018-02-23T00:08:50.277Z,0
2018-02-23T00:09:50.269Z,0
2018-02-23T00:10:50.515Z,0
2018-02-23T00:11:50.505Z,0
2018-02-23T00:12:50.239Z,0
2018-02-23T00:13:50.236Z,0
2018-02-23T00:14:49.959Z,0
2018-02-23T00:15:50.461Z,0
2018-02-23T00:16:50.197Z,0
2018-02-23T00:17:50.185Z,0
2018-02-23T00:18:50.194Z,0
2018-02-23T00:19:50.171Z,0
2018-02-23T00:20:50.389Z,0
2018-02-23T00:21:50.127Z,0
2018-02-23T00:22:50.113Z,0
2018-02-23T00:23:49.865Z,0
2018-02-23T00:24:50.101Z,0
2018-02-23T00:25:50.899Z,0
2018-02-23T00:26:50.710Z,0
2018-02-23T00:27:52.126Z,0
2018-02-23T00:28:49.800Z,0
2018-02-23T00:29:50.037Z,0
2018-02-23T00:30:50.042Z,0
2018-02-23T00:31:50.017Z,0
2018-02-23T00:32:50.266Z,0
2018-02-23T00:33:50.000Z,0
2018-02-23T00:34:49.995Z,0
2018-02-23T00:35:49.734Z,0
2018-02-23T00:36:50.088Z,0
2018-02-23T00:37:50.208Z,0
2018-02-23T00:38:50.208Z,0
2018-02-23T00:39:50.197Z,0
2018-02-23T00:40:49.668Z,0
2018-02-23T00:41:49.916Z,0
2018-02-23T00:42:49.644Z,0
2018-02-23T00:43:49.945Z,0
2018-02-23T00:44:50.143Z,0
2018-02-23T00:45:49.624Z,0
2018-02-23T00:46:49.859Z,0
2018-02-23T00:47:50.110Z,0
2018-02-23T00:48:50.069Z,0
2018-02-23T00:49:50.078Z,0
2018-02-23T00:50:50.069Z,0
2018-02-23T00:51:49.541Z,0
2018-02-23T00:52:49.789Z,0
2018-02-23T00:53:49.762Z,0
2018-02-23T00:54:49.774Z,0
2018-02-23T00:55:49.747Z,0
2018-02-23T00:56:49.479Z,0
2018-02-23T00:57:49.972Z,0
2018-02-23T00:58:49.739Z,0
2018-02-23T00:59:50.010Z,0
2018-02-23T01:00:50.013Z,0
2018-02-23T01:01:49.967Z,0
2018-02-23T01:02:49.933Z,0
2018-02-23T01:03:49.661Z,0
2018-02-23T01:04:49.384Z,0
2018-02-23T01:05:49.660Z,0
2018-02-23T01:06:49.881Z,0
2018-02-23T01:07:49.616Z,0
2018-02-23T01:08:49.611Z,0
2018-02-23T01:09:49.608Z,0
2018-02-23T01:10:49.844Z,0
2018-02-23T01:11:49.805Z,0
2018-02-23T01:12:49.796Z,0
2018-02-23T01:13:49.808Z,0
2018-02-23T01:14:49.528Z,0
2018-02-23T01:15:49.586Z,0
2018-02-23T01:16:49.243Z,0
2018-02-23T01:17:49.484Z,0
2018-02-23T01:18:49.214Z,0
2018-02-23T01:19:49.728Z,0
2018-02-23T01:20:49.515Z,0
2018-02-23T01:21:49.437Z,0
2018-02-23T01:22:49.176Z,0
2018-02-23T01:23:49.436Z,0
2018-02-23T01:24:49.157Z,0
2018-02-23T01:25:49.730Z,0
2018-02-23T01:26:48.880Z,0
2018-02-23T01:27:49.382Z,0
2018-02-23T01:28:49.666Z,0
2018-02-23T01:29:49.614Z,0
2018-02-23T01:30:49.622Z,0
2018-02-23T01:31:49.078Z,0
2018-02-23T01:32:49.579Z,0
2018-02-23T01:33:49.322Z,0
2018-02-23T01:34:49.541Z,0
2018-02-23T01:35:49.582Z,0
2018-02-23T01:36:49.520Z,0
2018-02-23T01:37:49.002Z,0
2018-02-23T01:38:49.492Z,0
2018-02-23T01:39:49.489Z,0
2018-02-23T01:40:49.466Z,0
2018-02-23T01:41:49.198Z,0
2018-02-23T01:42:48.948Z,0
2018-02-23T01:43:49.431Z,0
2018-02-23T01:44:49.169Z,0
2018-02-23T01:45:49.404Z,0
2018-02-23T01:46:49.146Z,0
2018-02-23T01:47:49.149Z,0
2018-02-23T01:48:49.370Z,0
2018-02-23T01:49:49.372Z,0
2018-02-23T01:50:49.094Z,0
2018-02-23T01:51:49.090Z,0
2018-02-23T01:52:49.069Z,0
2018-02-23T01:53:49.065Z,0
2018-02-23T01:54:49.121Z,0
2018-02-23T01:55:49.326Z,0
2018-02-23T01:56:49.023Z,0
2018-02-23T01:57:48.756Z,0
2018-02-23T01:58:50.105Z,0
2018-02-23T01:59:49.243Z,0
2018-02-23T02:00:48.772Z,0
2018-02-23T02:01:49.235Z,0
2018-02-23T02:02:48.957Z,0
2018-02-23T02:03:49.195Z,0
2018-02-23T02:04:48.927Z,0
2018-02-23T02:05:48.957Z,0
2018-02-23T02:06:49.166Z,0
2018-02-23T02:07:48.903Z,0
2018-02-23T02:08:49.136Z,0
2018-02-23T02:09:48.864Z,0
2018-02-23T02:10:48.882Z,0
2018-02-23T02:11:49.105Z,0
2018-02-23T02:12:48.832Z,0
2018-02-23T02:13:49.074Z,0
2018-02-23T02:14:49.062Z,0
2018-02-23T02:15:49.061Z,0
2018-02-23T02:16:48.776Z,0
2018-02-23T02:17:48.767Z,0
2018-02-23T02:18:49.021Z,0
2018-02-23T02:19:49.016Z,0
2018-02-23T02:20:48.487Z,0
2018-02-23T02:21:48.978Z,0
2018-02-23T02:22:49.020Z,0
2018-02-23T02:23:48.955Z,0
2018-02-23T02:24:49.026Z,0
2018-02-23T02:25:48.945Z,0
2018-02-23T02:26:48.913Z,0
2018-02-23T02:27:48.904Z,0
2018-02-23T02:28:48.655Z,0
2018-02-23T02:29:49.750Z,0
2018-02-23T02:30:48.708Z,0
2018-02-23T02:31:48.673Z,0
2018-02-23T02:32:48.345Z,0
2018-02-23T02:33:48.844Z,0
2018-02-23T02:34:48.569Z,0
2018-02-23T02:35:48.821Z,0
2018-02-23T02:36:48.815Z,0
2018-02-23T02:37:48.791Z,0
2018-02-23T02:38:48.520Z,0
2018-02-23T02:39:48.249Z,0
2018-02-23T02:40:48.768Z,0
2018-02-23T02:41:48.762Z,0
2018-02-23T02:42:48.730Z,0
2018-02-23T02:43:48.499Z,0
2018-02-23T02:44:48.243Z,0
2018-02-23T02:45:48.300Z,0
2018-02-23T02:46:48.171Z,0
2018-02-23T02:47:48.672Z,0
2018-02-23T02:48:48.648Z,0
2018-02-23T02:49:48.648Z,0
2018-02-23T02:50:48.631Z,0
2018-02-23T02:51:47.856Z,0
2018-02-23T02:52:48.368Z,0
2018-02-23T02:53:48.612Z,0
2018-02-23T02:54:48.586Z,0
2018-02-23T02:55:48.607Z,0
2018-02-23T02:56:48.571Z,0
2018-02-23T02:57:48.296Z,0
2018-02-23T02:58:48.538Z,0
2018-02-23T02:59:49.933Z,0
2018-02-23T03:00:48.529Z,0
2018-02-23T03:01:48.517Z,0
2018-02-23T03:02:48.236Z,0
2018-02-23T03:03:48.475Z,0
2018-02-23T03:04:48.213Z,0
2018-02-23T03:05:48.265Z,0
2018-02-23T03:06:48.728Z,0
2018-02-23T03:07:48.431Z,0
2018-02-23T03:08:48.431Z,0
2018-02-23T03:09:48.422Z,0
2018-02-23T03:10:48.188Z,0
2018-02-23T03:11:48.371Z,0
2018-02-23T03:12:48.375Z,0
2018-02-23T03:13:48.373Z,0
2018-02-23T03:14:48.144Z,0
2018-02-23T03:15:48.373Z,0
2018-02-23T03:16:48.318Z,0
2018-02-23T03:17:48.298Z,0
2018-02-23T03:18:47.797Z,0
2018-02-23T03:19:48.024Z,0
2018-02-23T03:20:48.348Z,0
2018-02-23T03:21:48.006Z,0
2018-02-23T03:22:47.744Z,0
2018-02-23T03:23:48.238Z,0
2018-02-23T03:24:47.972Z,0
2018-02-23T03:25:47.728Z,0
2018-02-23T03:26:47.710Z,0
2018-02-23T03:27:47.464Z,0
2018-02-23T03:28:47.908Z,0
2018-02-23T03:29:49.769Z,0
2018-02-23T03:30:48.225Z,0
2018-02-23T03:31:47.880Z,0
2018-02-23T03:32:48.134Z,0
2018-02-23T03:33:47.852Z,0
2018-02-23T03:34:47.587Z,0
2018-02-23T03:35:48.112Z,0
2018-02-23T03:36:48.072Z,0
2018-02-23T03:37:48.166Z,0
2018-02-23T03:38:48.038Z,0
2018-02-23T03:39:48.035Z,0
2018-02-23T03:40:48.021Z,0
2018-02-23T03:41:48.014Z,0
2018-02-23T03:42:47.751Z,0
2018-02-23T03:43:47.756Z,0
2018-02-23T03:44:47.967Z,0
2018-02-23T03:45:47.745Z,0
2018-02-23T03:46:47.944Z,0
2018-02-23T03:47:47.954Z,0
2018-02-23T03:48:47.925Z,0
2018-02-23T03:49:47.906Z,0
2018-02-23T03:50:47.701Z,0
2018-02-23T03:51:47.646Z,0
2018-02-23T03:52:47.870Z,0
2018-02-23T03:53:47.892Z,0
2018-02-23T03:54:47.603Z,0
2018-02-23T03:55:47.641Z,0
2018-02-23T03:56:47.973Z,0
2018-02-23T03:57:47.566Z,0
2018-02-23T03:58:47.811Z,0
2018-02-23T03:59:47.532Z,0
2018-02-23T04:00:47.814Z,0
2018-02-23T04:01:47.768Z,0
2018-02-23T04:02:47.244Z,0
2018-02-23T04:03:47.504Z,0
2018-02-23T04:04:47.732Z,0
2018-02-23T04:05:47.719Z,0
2018-02-23T04:06:47.451Z,0
2018-02-23T04:07:47.684Z,0
2018-02-23T04:08:47.436Z,0
2018-02-23T04:09:47.190Z,0
2018-02-23T04:10:47.752Z,0
2018-02-23T04:11:47.643Z,0
2018-02-23T04:12:47.374Z,0
2018-02-23T04:13:47.615Z,0
2018-02-23T04:14:47.407Z,0
2018-02-23T04:15:47.466Z,0
2018-02-23T04:16:47.590Z,0
2018-02-23T04:17:47.595Z,0
2018-02-23T04:18:47.560Z,0
2018-02-23T04:19:47.544Z,0
2018-02-23T04:20:47.600Z,0
2018-02-23T04:21:47.528Z,0
2018-02-23T04:22:47.508Z,0
2018-02-23T04:23:47.499Z,0
2018-02-23T04:24:46.951Z,0
2018-02-23T04:25:47.501Z,0
2018-02-23T04:26:47.224Z,0
2018-02-23T04:27:47.173Z,0
2018-02-23T04:28:47.161Z,0
2018-02-23T04:29:47.148Z,0
2018-02-23T04:30:49.304Z,0
2018-02-23T04:31:47.148Z,0
2018-02-23T04:32:47.118Z,0
2018-02-23T04:33:47.390Z,0
2018-02-23T04:34:47.094Z,0
2018-02-23T04:35:47.117Z,0
2018-02-23T04:36:47.309Z,0
2018-02-23T04:37:47.291Z,0
2018-02-23T04:38:47.041Z,0
2018-02-23T04:39:47.009Z,0
2018-02-23T04:40:47.019Z,0
2018-02-23T04:41:47.237Z,0
2018-02-23T04:42:47.230Z,0
2018-02-23T04:43:47.211Z,0
2018-02-23T04:44:47.208Z,0
2018-02-23T04:45:47.825Z,0
2018-02-23T04:46:46.924Z,0
2018-02-23T04:47:47.171Z,0
2018-02-23T04:48:46.910Z,0
2018-02-23T04:49:47.146Z,0
2018-02-23T04:50:46.874Z,0
2018-02-23T04:51:47.119Z,0
2018-02-23T04:52:46.868Z,0
2018-02-23T04:53:46.829Z,0
2018-02-23T04:54:46.824Z,0
2018-02-23T04:55:46.852Z,0
2018-02-23T04:56:47.060Z,0
2018-02-23T04:57:47.038Z,0
2018-02-23T04:58:46.784Z,0
2018-02-23T04:59:47.007Z,0
2018-02-23T05:00:48.046Z,0
2018-02-23T05:01:46.467Z,0
2018-02-23T05:02:46.712Z,0
2018-02-23T05:03:46.955Z,0
2018-02-23T05:04:46.949Z,0
2018-02-23T05:05:46.941Z,0
2018-02-23T05:06:46.669Z,0
2018-02-23T05:07:46.661Z,0
2018-02-23T05:08:46.391Z,0
2018-02-23T05:09:46.885Z,0
2018-02-23T05:10:46.435Z,0
2018-02-23T05:11:46.338Z,0
2018-02-23T05:12:46.328Z,0
2018-02-23T05:13:46.846Z,0
2018-02-23T05:14:46.824Z,0
2018-02-23T05:15:46.637Z,0
2018-02-23T05:16:46.531Z,0
2018-02-23T05:17:46.283Z,0
2018-02-23T05:18:46.528Z,0
2018-02-23T05:19:46.743Z,0
2018-02-23T05:20:46.781Z,0
2018-02-23T05:21:46.715Z,0
2018-02-23T05:22:46.447Z,0
2018-02-23T05:23:46.696Z,0
2018-02-23T05:24:46.436Z,0
2018-02-23T05:25:46.156Z,0
2018-02-23T05:26:46.654Z,0
2018-02-23T05:27:46.392Z,0
2018-02-23T05:28:46.442Z,0
2018-02-23T05:29:46.767Z,0
2018-02-23T05:30:46.726Z,0
2018-02-23T05:31:47.841Z,0
2018-02-23T05:32:46.578Z,0
2018-02-23T05:33:46.553Z,0
2018-02-23T05:34:46.551Z,0
2018-02-23T05:35:46.309Z,0
2018-02-23T05:36:46.270Z,0
2018-02-23T05:37:46.504Z,0
2018-02-23T05:38:46.489Z,0
2018-02-23T05:39:46.218Z,0
2018-02-23T05:40:46.053Z,0
2018-02-23T05:41:45.954Z,0
2018-02-23T05:42:46.509Z,0
2018-02-23T05:43:46.420Z,0
2018-02-23T05:44:45.911Z,0
2018-02-23T05:45:46.191Z,0
2018-02-23T05:46:46.390Z,0
2018-02-23T05:47:46.372Z,0
2018-02-23T05:48:45.857Z,4
2018-02-23T05:49:46.348Z,4
2018-02-23T05:50:46.392Z,4
2018-02-23T05:51:46.332Z,0
2018-02-23T05:52:45.554Z,4
2018-02-23T05:53:46.282Z,4
2018-02-23T05:54:46.027Z,4
2018-02-23T05:55:46.391Z,4
2018-02-23T05:56:45.513Z,4
2018-02-23T05:57:46.278Z,4
2018-02-23T05:58:46.268Z,12
2018-02-23T05:59:45.954Z,12
2018-02-23T06:00:46.251Z,12
2018-02-23T06:01:48.575Z,16
2018-02-23T06:02:46.166Z,16
2018-02-23T06:03:45.661Z,20
2018-02-23T06:04:45.887Z,24
2018-02-23T06:05:46.132Z,28
2018-02-23T06:06:46.119Z,32
2018-02-23T06:07:46.118Z,36
2018-02-23T06:08:46.083Z,40
2018-02-23T06:09:45.821Z,48
2018-02-23T06:10:46.109Z,56
2018-02-23T06:11:45.800Z,60
2018-02-23T06:12:45.783Z,68
2018-02-23T06:13:46.013Z,80
2018-02-23T06:14:46.002Z,84
2018-02-23T06:15:46.018Z,96
2018-02-23T06:16:45.476Z,108
2018-02-23T06:17:46.218Z,116
2018-02-23T06:18:45.954Z,128
2018-02-23T06:19:45.943Z,140
2018-02-23T06:20:45.716Z,152
2018-02-23T06:21:45.656Z,164
2018-02-23T06:22:45.902Z,176
2018-02-23T06:23:45.883Z,192
2018-02-23T06:24:45.612Z,200
2018-02-23T06:25:45.622Z,212
2018-02-23T06:26:45.917Z,224
2018-02-23T06:27:45.583Z,244
2018-02-23T06:28:45.567Z,264
2018-02-23T06:29:45.808Z,276
2018-02-23T06:30:45.839Z,288
2018-02-23T06:31:45.523Z,300
2018-02-23T06:32:45.951Z,320
2018-02-23T06:33:45.753Z,336
2018-02-23T06:34:45.235Z,348
2018-02-23T06:35:45.348Z,364
2018-02-23T06:36:45.454Z,388
2018-02-23T06:37:45.458Z,404
2018-02-23T06:38:45.202Z,428
2018-02-23T06:39:45.680Z,448
2018-02-23T06:40:45.746Z,476
2018-02-23T06:41:45.409Z,496
2018-02-23T06:42:45.400Z,520
2018-02-23T06:43:45.619Z,540
2018-02-23T06:44:45.207Z,568
2018-02-23T06:45:45.406Z,592
2018-02-23T06:46:45.326Z,616
2018-02-23T06:47:45.852Z,644
2018-02-23T06:48:45.552Z,672
2018-02-23T06:49:45.290Z,704
2018-02-23T06:50:44.786Z,744
2018-02-23T06:51:45.242Z,792
2018-02-23T06:52:45.338Z,828
2018-02-23T06:53:45.479Z,856
2018-02-23T06:54:44.949Z,892
2018-02-23T06:55:45.030Z,956
2018-02-23T06:56:45.544Z,1000
2018-02-23T06:57:45.180Z,1036
2018-02-23T06:58:45.162Z,1076
2018-02-23T06:59:45.167Z,1112
2018-02-23T07:00:45.141Z,1132
2018-02-23T07:01:45.127Z,1128
2018-02-23T07:02:44.839Z,1108
2018-02-23T07:03:44.836Z,1100
2018-02-23T07:04:44.912Z,1104
2018-02-23T07:05:45.056Z,1116
2018-02-23T07:06:45.038Z,1136
2018-02-23T07:07:45.028Z,1168
2018-02-23T07:08:44.757Z,1176
2018-02-23T07:09:45.002Z,1168
2018-02-23T07:10:44.989Z,1180
2018-02-23T07:11:45.233Z,1192
2018-02-23T07:12:45.241Z,1204
2018-02-23T07:13:45.215Z,1224
2018-02-23T07:14:44.929Z,1256
2018-02-23T07:15:44.953Z,1284
2018-02-23T07:16:44.903Z,1324
2018-02-23T07:17:45.183Z,1364
2018-02-23T07:18:44.885Z,1396
2018-02-23T07:19:44.860Z,1440
2018-02-23T07:20:45.206Z,1476
2018-02-23T07:21:45.111Z,1520
2018-02-23T07:22:45.089Z,1560
2018-02-23T07:23:45.072Z,1608
2018-02-23T07:24:44.546Z,1644
2018-02-23T07:25:44.815Z,1684
2018-02-23T07:26:44.767Z,1692
2018-02-23T07:27:44.248Z,1720
2018-02-23T07:28:44.994Z,1732
2018-02-23T07:29:44.987Z,1740
2018-02-23T07:30:44.510Z,1720
2018-02-23T07:31:44.954Z,1716
2018-02-23T07:32:44.692Z,1744
2018-02-23T07:33:45.740Z,1800
2018-02-23T07:34:44.908Z,1852
2018-02-23T07:35:44.935Z,1892
2018-02-23T07:36:44.887Z,1928
2018-02-23T07:37:44.620Z,1988
2018-02-23T07:38:44.616Z,2068
2018-02-23T07:39:44.346Z,2108
2018-02-23T07:40:44.906Z,2136
2018-02-23T07:41:44.878Z,2128
2018-02-23T07:42:44.811Z,2144
2018-02-23T07:43:44.840Z,2144
2018-02-23T07:44:44.531Z,2128
2018-02-23T07:45:44.268Z,2100
2018-02-23T07:46:44.758Z,2096
2018-02-23T07:47:44.492Z,2108
2018-02-23T07:48:44.469Z,2124
2018-02-23T07:49:44.214Z,2116
2018-02-23T07:50:44.751Z,2132
2018-02-23T07:51:44.440Z,2160
2018-02-23T07:52:44.168Z,2212
2018-02-23T07:53:44.162Z,2280
2018-02-23T07:54:44.659Z,2332
2018-02-23T07:55:44.440Z,2368
2018-02-23T07:56:44.628Z,2420
2018-02-23T07:57:44.605Z,2432
2018-02-23T07:58:44.601Z,2428
2018-02-23T07:59:44.583Z,2360
2018-02-23T08:00:44.395Z,2320
2018-02-23T08:01:44.046Z,2296
2018-02-23T08:02:44.548Z,2288
2018-02-23T08:03:45.398Z,2280
2018-02-23T08:04:44.263Z,2296
2018-02-23T08:05:44.591Z,2304
2018-02-23T08:06:44.242Z,2320
2018-02-23T08:07:44.481Z,2312
2018-02-23T08:08:44.467Z,2316
2018-02-23T08:09:44.444Z,2332
2018-02-23T08:10:44.221Z,2348
2018-02-23T08:11:44.438Z,2348
2018-02-23T08:12:44.406Z,2316
2018-02-23T08:13:44.147Z,2288
2018-02-23T08:14:44.524Z,2300
2018-02-23T08:15:43.934Z,2328
2018-02-23T08:16:43.856Z,2336
2018-02-23T08:17:44.093Z,2304
2018-02-23T08:18:44.091Z,2288
2018-02-23T08:19:43.817Z,2332
2018-02-23T08:20:44.140Z,2396
2018-02-23T08:21:44.037Z,2440
2018-02-23T08:22:44.042Z,2520
2018-02-23T08:23:44.015Z,2616
2018-02-23T08:24:43.742Z,2696
2018-02-23T08:25:44.257Z,2724
2018-02-23T08:26:43.736Z,2772
2018-02-23T08:27:43.971Z,2836
2018-02-23T08:28:43.700Z,2920
2018-02-23T08:29:43.942Z,3036
2018-02-23T08:30:43.990Z,3200
2018-02-23T08:31:44.161Z,3352
2018-02-23T08:32:43.677Z,3480
2018-02-23T08:33:44.140Z,3636
2018-02-23T08:34:44.141Z,3796
2018-02-23T08:35:43.862Z,3920
2018-02-23T08:36:44.097Z,4020
2018-02-23T08:37:43.857Z,4108
2018-02-23T08:38:44.085Z,4192
2018-02-23T08:40:16.438Z,4300
2018-02-23T08:40:44.111Z,4320
2018-02-23T08:41:43.533Z,4360
2018-02-23T08:42:44.035Z,4376
2018-02-23T08:43:43.500Z,4436
2018-02-23T08:44:43.503Z,4540
2018-02-23T08:45:43.568Z,4604
2018-02-23T08:46:43.719Z,4660
2018-02-23T08:47:43.708Z,4664
2018-02-23T08:48:43.687Z,4672
2018-02-23T08:49:43.964Z,4652
2018-02-23T08:50:43.943Z,4624
2018-02-23T08:51:43.913Z,4688
2018-02-23T08:52:43.917Z,4756
2018-02-23T08:53:43.884Z,4840
2018-02-23T08:54:43.873Z,4900
2018-02-23T08:55:43.999Z,4928
2018-02-23T08:56:43.332Z,4824
2018-02-23T08:57:43.574Z,4780
2018-02-23T08:58:43.564Z,4744
2018-02-23T08:59:43.295Z,4712
2018-02-23T09:00:43.304Z,4672
2018-02-23T09:01:43.531Z,4672
2018-02-23T09:02:43.012Z,4716
2018-02-23T09:03:43.762Z,4772
2018-02-23T09:04:45.414Z,4780
2018-02-23T09:05:43.487Z,4880
2018-02-23T09:06:43.732Z,4908
2018-02-23T09:07:43.718Z,4912
2018-02-23T09:08:43.188Z,4880
2018-02-23T09:09:43.183Z,4900
2018-02-23T09:10:43.420Z,4924
2018-02-23T09:11:43.407Z,4960
2018-02-23T09:12:43.466Z,4984
2018-02-23T09:13:43.389Z,4960
2018-02-23T09:14:43.367Z,4932
2018-02-23T09:15:43.396Z,4888
2018-02-23T09:16:43.345Z,4800
2018-02-23T09:17:43.082Z,4800
2018-02-23T09:18:43.604Z,4820
2018-02-23T09:19:43.304Z,4836
2018-02-23T09:20:43.345Z,4880
2018-02-23T09:21:43.036Z,4956
2018-02-23T09:22:43.018Z,4984
2018-02-23T09:23:43.007Z,5028
2018-02-23T09:24:43.599Z,5024
2018-02-23T09:25:43.570Z,5032
2018-02-23T09:26:43.235Z,5040
2018-02-23T09:27:43.227Z,5048
2018-02-23T09:28:42.692Z,5096
2018-02-23T09:29:43.441Z,5160
2018-02-23T09:30:43.224Z,5208
2018-02-23T09:31:43.163Z,5296
2018-02-23T09:32:43.152Z,5424
2018-02-23T09:33:43.155Z,5524
2018-02-23T09:34:42.867Z,5636
2018-02-23T09:35:43.168Z,5660
2018-02-23T09:36:43.108Z,5680
2018-02-23T09:37:43.083Z,5648
2018-02-23T09:38:43.073Z,5600
2018-02-23T09:39:43.064Z,5628
2018-02-23T09:40:43.143Z,5640
2018-02-23T09:41:43.057Z,5612
2018-02-23T09:42:43.279Z,5504
2018-02-23T09:43:43.122Z,5468
2018-02-23T09:44:42.760Z,5416
2018-02-23T09:45:43.309Z,5368
2018-02-23T09:46:42.721Z,5360
2018-02-23T09:47:42.962Z,5392
2018-02-23T09:48:43.209Z,5376
2018-02-23T09:49:42.940Z,5364
2018-02-23T09:50:45.089Z,5336
2018-02-23T09:51:42.927Z,5296
2018-02-23T09:52:43.159Z,5308
2018-02-23T09:53:42.900Z,5284
2018-02-23T09:54:43.144Z,5312
2018-02-23T09:55:42.875Z,5396
2018-02-23T09:56:43.257Z,5372
2018-02-23T09:57:42.857Z,5412
2018-02-23T09:58:42.859Z,5440
2018-02-23T09:59:42.575Z,5484
2018-02-23T10:00:43.139Z,5488
2018-02-23T10:01:42.798Z,5504
2018-02-23T10:02:43.053Z,5488
2018-02-23T10:03:42.786Z,5516
2018-02-23T10:04:43.037Z,5532
2018-02-23T10:05:44.167Z,5548
2018-02-23T10:06:42.752Z,5572
2018-02-23T10:07:42.999Z,5632
2018-02-23T10:08:42.734Z,5616
2018-02-23T10:09:42.729Z,5636
2018-02-23T10:10:42.773Z,5660
2018-02-23T10:11:42.439Z,5644
2018-02-23T10:12:42.678Z,5708
2018-02-23T10:13:42.424Z,5788
2018-02-23T10:14:42.907Z,5728
2018-02-23T10:15:43.227Z,5664
2018-02-23T10:16:42.380Z,5752
2018-02-23T10:17:42.872Z,5900
2018-02-23T10:18:42.896Z,5880
2018-02-23T10:19:42.858Z,5904
2018-02-23T10:20:42.678Z,5932
2018-02-23T10:21:42.584Z,6004
2018-02-23T10:22:42.816Z,6072
2018-02-23T10:23:42.069Z,6200
2018-02-23T10:24:42.811Z,6264
2018-02-23T10:25:44.208Z,6212
2018-02-23T10:55:45.160Z,5460
2018-02-23T10:56:45.338Z,5388
2018-02-23T10:57:45.629Z,5384
2018-02-23T10:58:45.308Z,5396
2018-02-23T10:59:45.024Z,5416
2018-02-23T11:00:45.024Z,5536
2018-02-23T11:01:45.512Z,5656
2018-02-23T11:02:45.242Z,5632
2018-02-23T11:03:44.985Z,5636
2018-02-23T11:04:45.481Z,5696
2018-02-23T11:05:45.321Z,5796
2018-02-23T11:06:44.944Z,5840
2018-02-23T11:07:45.462Z,5728
2018-02-23T11:08:45.417Z,5676
2018-02-23T11:09:44.897Z,5780
2018-02-23T11:10:46.198Z,5812
2018-02-23T11:11:44.866Z,5836
2018-02-23T11:12:45.115Z,5880
2018-02-23T11:13:44.847Z,5852
2018-02-23T11:14:45.382Z,5880
2018-02-23T11:15:45.418Z,5944
2018-02-23T11:16:45.071Z,5976
2018-02-23T11:17:45.326Z,6064
2018-02-23T11:18:45.403Z,6104
2018-02-23T11:19:45.288Z,6020
2018-02-23T11:20:45.311Z,6112
2018-02-23T11:21:45.012Z,6144
2018-02-23T11:22:45.263Z,6072
2018-02-23T11:23:45.266Z,6044
2018-02-23T11:24:44.994Z,6128
2018-02-23T11:25:45.363Z,6136
2018-02-23T11:26:45.209Z,6056
2018-02-23T11:27:45.249Z,6056
2018-02-23T11:28:45.193Z,6124
2018-02-23T11:29:44.955Z,6188
2018-02-23T11:30:44.972Z,6144
2018-02-23T11:31:44.902Z,6112
2018-02-23T11:32:44.890Z,6100
2018-02-23T11:33:44.633Z,6068
2018-02-23T11:34:44.866Z,6096
2018-02-23T11:35:44.891Z,6196
2018-02-23T11:36:45.114Z,6032
2018-02-23T11:37:44.834Z,5852
2018-02-23T11:38:44.826Z,5816
2018-02-23T11:39:45.066Z,5672
2018-02-23T11:40:48.345Z,5548
2018-02-23T11:41:44.802Z,5528
2018-02-23T11:42:44.545Z,5508
2018-02-23T11:43:45.024Z,5548
2018-02-23T11:44:45.014Z,5624
2018-02-23T11:45:44.851Z,5916
2018-02-23T11:46:44.491Z,5996
2018-02-23T11:47:44.978Z,5992
2018-02-23T11:48:44.746Z,5972
2018-02-23T11:49:44.739Z,5844
2018-02-23T11:50:44.470Z,5888
2018-02-23T11:51:44.683Z,5924
2018-02-23T11:52:44.691Z,5904
2018-02-23T11:53:44.673Z,5912
2018-02-23T11:54:44.905Z,5844
2018-02-23T11:55:45.788Z,5760
2018-02-23T11:56:44.889Z,5788
2018-02-23T11:57:44.877Z,5880
2018-02-23T11:58:44.617Z,6004
2018-02-23T11:59:44.861Z,5948
2018-02-23T12:00:44.682Z,6084
2018-02-23T12:01:44.851Z,6216
2018-02-23T12:02:44.836Z,6308
2018-02-23T12:03:44.565Z,6356
2018-02-23T12:04:44.810Z,6444
2018-02-23T12:05:44.598Z,6616
2018-02-23T12:06:44.538Z,6576
2018-02-23T12:07:44.774Z,6604
2018-02-23T12:08:44.510Z,6556
2018-02-23T12:09:44.751Z,6416
2018-02-23T12:10:44.812Z,6404
2018-02-23T12:11:44.225Z,6320
2018-02-23T12:12:44.742Z,6312
2018-02-23T12:13:44.454Z,6500
2018-02-23T12:14:44.463Z,6540
2018-02-23T12:15:44.450Z,6564
2018-02-23T12:16:44.434Z,6544
2018-02-23T12:17:44.177Z,6636
2018-02-23T12:18:44.163Z,6728
2018-02-23T12:19:44.650Z,6788
2018-02-23T12:20:44.693Z,6620
2018-02-23T12:21:43.883Z,6528
2018-02-23T12:22:44.130Z,6576
2018-02-23T12:23:44.370Z,6644
2018-02-23T12:24:44.608Z,6724
2018-02-23T12:25:43.959Z,6736
2018-02-23T12:26:46.182Z,6872
2018-02-23T12:27:44.104Z,6884
2018-02-23T12:28:44.570Z,6948
2018-02-23T12:29:44.300Z,7068
2018-02-23T12:30:44.625Z,7224
2018-02-23T12:31:44.531Z,7408
2018-02-23T12:32:44.528Z,7544
2018-02-23T12:33:44.016Z,7520
2018-02-23T12:34:44.514Z,7340
2018-02-23T12:35:44.545Z,7096
2018-02-23T12:36:44.241Z,7000
2018-02-23T12:37:44.494Z,7080
2018-02-23T12:38:44.209Z,6968
2018-02-23T12:39:44.456Z,7080
2018-02-23T12:40:44.243Z,7132
2018-02-23T12:41:46.290Z,7096
2018-02-23T12:42:44.179Z,7112
2018-02-23T12:43:44.180Z,7120
2018-02-23T12:44:43.911Z,7080
2018-02-23T12:45:44.214Z,7172
2018-02-23T12:46:44.395Z,7168
2018-02-23T12:47:44.126Z,7280
2018-02-23T12:48:44.380Z,7504
2018-02-23T12:49:44.372Z,7540
2018-02-23T12:50:44.193Z,7268
2018-02-23T12:51:44.348Z,7220
2018-02-23T12:52:44.097Z,7192
2018-02-23T12:53:44.087Z,6936
2018-02-23T12:54:44.318Z,6916
2018-02-23T12:55:43.823Z,7092
2018-02-23T12:56:45.695Z,6964
2018-02-23T12:57:44.295Z,6740
2018-02-23T12:58:44.040Z,6604
2018-02-23T12:59:44.333Z,6372
2018-02-23T13:00:44.315Z,6556
2018-02-23T13:01:44.017Z,6508
2018-02-23T13:02:43.983Z,6428
2018-02-23T13:03:44.258Z,6452
2018-02-23T13:04:44.221Z,6604
2018-02-23T13:05:43.762Z,6636
2018-02-23T13:06:43.698Z,6668
2018-02-23T13:07:44.199Z,6532
2018-02-23T13:08:44.188Z,6436
2018-02-23T13:09:43.933Z,6344
2018-02-23T13:10:44.250Z,6592
2018-02-23T13:11:44.651Z,6612
2018-02-23T13:12:43.897Z,6432
2018-02-23T13:13:43.643Z,6204
2018-02-23T13:14:43.629Z,6124
2018-02-23T13:15:43.654Z,6020
2018-02-23T13:16:43.602Z,6100
2018-02-23T13:17:44.113Z,6056
2018-02-23T13:18:44.113Z,5992
2018-02-23T13:19:43.575Z,5880
2018-02-23T13:20:43.925Z,5776
2018-02-23T13:21:43.814Z,5680
2018-02-23T13:22:44.071Z,5552
2018-02-23T13:23:43.935Z,5440
2018-02-23T13:24:43.791Z,5584
2018-02-23T13:25:43.808Z,5712
2018-02-23T13:26:43.779Z,5720
2018-02-23T13:27:45.333Z,5748
2018-02-23T13:28:43.239Z,5908
2018-02-23T13:29:44.000Z,5888
2018-02-23T13:30:44.025Z,5872
2018-02-23T13:31:43.991Z,5700
2018-02-23T13:32:43.460Z,5680
2018-02-23T13:33:43.972Z,5684
2018-02-23T13:34:43.694Z,5524
2018-02-23T13:35:43.731Z,5384
2018-02-23T13:36:43.681Z,5296
2018-02-23T13:37:43.417Z,5156
2018-02-23T13:38:43.912Z,4988
2018-02-23T13:39:43.664Z,4640
2018-02-23T13:40:43.670Z,4340
2018-02-23T13:41:43.647Z,4148
2018-02-23T13:42:45.557Z,4176
2018-02-23T13:43:43.867Z,4304
2018-02-23T13:44:43.859Z,4428
2018-02-23T13:45:43.691Z,4540
2018-02-23T13:46:43.625Z,4624
2018-02-23T13:47:43.582Z,4632
2018-02-23T13:48:43.830Z,4676
2018-02-23T13:49:43.566Z,4660
2018-02-23T13:50:44.079Z,4596
2018-02-23T13:51:43.795Z,4512
2018-02-23T13:52:43.535Z,4540
2018-02-23T13:53:43.543Z,4700
2018-02-23T13:54:43.780Z,4788
2018-02-23T13:55:43.868Z,4608
2018-02-23T13:56:43.757Z,4424
2018-02-23T13:57:43.487Z,4348
2018-02-23T13:58:43.764Z,4272
2018-02-23T13:59:43.220Z,4144
2018-02-23T14:00:43.509Z,4132
2018-02-23T14:01:43.464Z,4164
2018-02-23T14:02:43.447Z,4108
2018-02-23T14:03:43.442Z,3932
2018-02-23T14:04:43.179Z,3856
2018-02-23T14:05:43.442Z,3716
2018-02-23T14:06:43.419Z,3644
2018-02-23T14:07:43.662Z,3540
2018-02-23T14:08:43.132Z,3496
2018-02-23T14:09:43.379Z,3468
2018-02-23T14:10:43.708Z,3352
2018-02-23T14:11:43.132Z,3348
2018-02-23T14:12:45.515Z,3332
2018-02-23T14:13:42.830Z,3240
2018-02-23T14:14:43.074Z,3248
2018-02-23T14:15:43.600Z,3324
2018-02-23T14:16:43.064Z,3300
2018-02-23T14:17:43.558Z,3304
2018-02-23T14:18:43.306Z,3356
2018-02-23T14:19:43.591Z,3416
2018-02-23T14:20:43.319Z,3348
2018-02-23T14:21:43.270Z,3256
2018-02-23T14:22:43.259Z,3224
2018-02-23T14:23:43.241Z,3192
2018-02-23T14:24:43.516Z,3164
2018-02-23T14:25:43.290Z,3124